Hickory Grove, Louisiana
Current Conditions -  °F | °C
As of 6:53 PM on Wednesday 22 Oct 2014 (Local Time) from KESF Reporting Station
Clear Clear  
Wind Chill: 60°   Ceiling: Unl
Heat Index: 60°   Visibility: 10mi
Dew Point: 55°   Wind: 0mph
Humidity: 83%   Direction: NA
Pressure: 30.08"   Gusts: NA
Location:  31.3606°N, 92.2142°W
Report Text: KESF 222353Z AUTO 00000KT 10SM CLR 16/13 A3008 RMK AO2 SLP186 T01560128 10256 20156 53002
Loading
Personal Weather Stations






























Interactive Weather Map New forecast layout! Learn more

10-Day Weather Forecast

Advertisements
Track Severe Weather on mobile